Terminal Aerodrome Forecast
Issued by NWS

Current Version | Previous Version | Text Only | Print | Product List | Glossary On
Versions: 1 2 3 4 5 6 7 8 9 10 11 12 13 14 15 16 17 18
000
FTUS42 KMLB 052259 AAE
TAFSUA
TAF AMD
KSUA 052259Z 0523/0618 36007G15KT 6SM -RA BR SCT020 BKN050
     FM060000 08012KT P6SM VCSH SCT040 BKN250
     FM060600 04008KT P6SM VCSH FEW025 BKN080
     FM061200 36010KT P6SM VCSH FEW025 SCT050 BKN250=

USA.gov is the U.S. government's official web portal to all federal, state and local government web resources and services.